Time;durP1;ratioP1;P1;durP2;ratioP2;P2;SDS_P1;SDS_P2;PMS_P1;PMS_P2;Temp;Humidity;BMP_temperature;BMP_pressure;BME280_temperature;BME280_humidity;BME280_pressure;Samples;Min_cycle;Max_cycle;Signal;HPM_P1;HPM_P2
2022/06/16 00:02:07;;;;;;;6.68;3.72;;;;;;;18.70;54.05;101146.38;5025371;28;20426;-70
2022/06/16 00:04:35;;;;;;;9.07;3.75;;;;;;;18.43;55.25;101155.50;5021711;28;20099;-70
2022/06/16 00:07:02;;;;;;;7.30;3.72;;;;;;;18.41;54.94;101157.41;5023718;28;20409;-70
2022/06/16 00:09:28;;;;;;;5.03;3.50;;;;;;;18.38;55.30;101156.81;5024428;28;20046;-70
2022/06/16 00:11:55;;;;;;;7.60;3.60;;;;;;;18.05;56.16;101162.91;5021543;28;20057;-70
2022/06/16 00:14:23;;;;;;;6.35;3.90;;;;;;;17.86;56.54;101157.28;5021358;28;20395;-71
2022/06/16 00:16:49;;;;;;;5.65;3.22;;;;;;;18.00;56.86;101155.28;5018335;28;20408;-70
2022/06/16 00:19:17;;;;;;;6.90;3.70;;;;;;;18.09;56.70;101152.91;5027151;28;20046;-70
2022/06/16 00:21:43;;;;;;;5.53;3.70;;;;;;;18.19;56.45;101154.72;5027586;28;20127;-70
2022/06/16 00:24:10;;;;;;;7.20;3.80;;;;;;;18.28;55.62;101156.69;5029245;28;20559;-69
2022/06/16 00:26:38;;;;;;;6.00;3.78;;;;;;;18.14;56.18;101154.25;5026197;28;20041;-69
2022/06/16 00:29:04;;;;;;;7.22;3.70;;;;;;;18.00;56.61;101152.63;5027079;28;20099;-70
2022/06/16 00:31:30;;;;;;;14.82;4.13;;;;;;;17.85;57.06;101158.25;5028211;28;20505;-70
2022/06/16 00:33:57;;;;;;;8.32;4.03;;;;;;;17.51;58.16;101154.59;5026549;28;20049;-70
2022/06/16 00:36:25;;;;;;;6.35;4.07;;;;;;;17.75;57.69;101151.94;5027186;28;20049;-70
2022/06/16 00:38:51;;;;;;;8.55;4.00;;;;;;;17.93;56.63;101156.72;5027215;28;20047;-69
2022/06/16 00:41:17;;;;;;;11.18;4.35;;;;;;;17.82;58.06;101148.72;5015390;28;20557;-69
2022/06/16 00:43:44;;;;;;;9.52;3.92;;;;;;;18.12;57.01;101164.13;5026006;28;20390;-70
2022/06/16 00:46:14;;;;;;;7.70;4.05;;;;;;;18.33;56.21;101159.81;5031256;28;20422;-70
2022/06/16 00:48:44;;;;;;;9.63;4.18;;;;;;;18.02;57.39;101167.59;5033725;28;20559;-70
2022/06/16 00:51:15;;;;;;;7.50;4.10;;;;;;;18.04;57.53;101163.00;5027337;28;20076;-70
2022/06/16 00:53:45;;;;;;;5.68;3.70;;;;;;;18.09;56.94;101161.72;5026432;28;20519;-70
2022/06/16 00:56:15;;;;;;;11.60;4.60;;;;;;;18.32;55.92;101150.19;5027025;28;20053;-70
2022/06/16 00:58:45;;;;;;;14.27;4.05;;;;;;;18.36;56.34;101150.78;5025843;28;20045;-71
2022/06/16 01:01:13;;;;;;;7.10;4.07;;;;;;;18.29;56.26;101139.78;5026695;28;20091;-70
2022/06/16 01:06:27;;;;;;;8.35;4.30;;;;;;;18.22;55.91;101149.19;5025896;28;20067;-70
2022/06/16 01:08:59;;;;;;;11.73;4.15;;;;;;;18.22;55.64;101141.22;5025608;28;20056;-70
2022/06/16 01:14:48;;;;;;;8.77;4.10;;;;;;;17.97;56.28;101152.03;5024649;28;20098;-69
2022/06/16 01:17:23;;;;;;;10.57;4.20;;;;;;;18.10;55.50;101147.50;5025446;28;20053;-69
2022/06/16 01:20:05;;;;;;;6.03;4.20;;;;;;;17.94;55.84;101157.56;5026682;28;20111;-70
2022/06/16 01:22:52;;;;;;;10.17;4.67;;;;;;;17.98;55.78;101148.41;5041447;28;20037;-69
2022/06/16 01:25:30;;;;;;;8.20;4.03;;;;;;;17.98;55.60;101153.72;5035935;28;20788;-69
2022/06/16 01:28:13;;;;;;;13.63;4.22;;;;;;;17.97;55.28;101154.69;5028509;28;20045;-69
2022/06/16 01:30:49;;;;;;;7.72;4.20;;;;;;;17.68;56.03;101153.38;5043596;28;20053;-69
2022/06/16 01:33:21;;;;;;;5.88;3.92;;;;;;;17.65;56.48;101164.22;5044857;28;20114;-69
2022/06/16 01:35:53;;;;;;;6.38;3.97;;;;;;;17.58;56.50;101155.03;5043916;28;20421;-69
2022/06/16 01:38:28;;;;;;;7.22;4.07;;;;;;;17.43;57.49;101159.63;5045600;28;20044;-69
2022/06/16 01:41:02;;;;;;;8.45;4.75;;;;;;;17.50;57.07;101150.25;5027530;28;20061;-69
2022/06/16 01:43:32;;;;;;;11.60;4.50;;;;;;;17.44;57.63;101154.19;5025422;28;20091;-69
2022/06/16 01:46:04;;;;;;;5.57;3.83;;;;;;;17.47;57.48;101143.38;5026996;28;20712;-69
2022/06/16 01:48:33;;;;;;;6.25;3.53;;;;;;;17.45;57.28;101147.94;5025890;28;20624;-70
2022/06/16 01:51:06;;;;;;;13.40;4.10;;;;;;;17.50;57.43;101147.59;5026015;28;20130;-70
2022/06/16 01:53:37;;;;;;;14.30;4.18;;;;;;;17.29;58.57;101150.03;5025929;28;20516;-70
2022/06/16 01:56:10;;;;;;;7.15;4.03;;;;;;;17.41;57.35;101151.78;5025307;28;20127;-70
2022/06/16 01:58:41;;;;;;;6.18;4.00;;;;;;;17.53;57.04;101152.69;5025655;28;20046;-70
2022/06/16 02:01:14;;;;;;;8.90;3.97;;;;;;;17.46;57.44;101151.44;5023926;28;20060;-70
2022/06/16 02:03:45;;;;;;;7.88;3.53;;;;;;;17.42;57.54;101153.47;5025119;28;20080;-70
2022/06/16 02:06:17;;;;;;;6.57;3.33;;;;;;;17.61;56.44;101154.78;5023417;28;20041;-69
2022/06/16 02:08:47;;;;;;;6.22;3.65;;;;;;;17.62;56.75;101146.75;5024621;28;20045;-69
2022/06/16 02:11:17;;;;;;;7.40;3.63;;;;;;;17.61;56.46;101149.50;5026331;28;20049;-69
2022/06/16 02:13:50;;;;;;;8.13;3.70;;;;;;;17.26;58.28;101146.75;5023304;28;20506;-69
2022/06/16 02:16:22;;;;;;;9.27;3.53;;;;;;;17.21;58.43;101148.91;5023514;28;20053;-69
2022/06/16 02:18:51;;;;;;;6.85;3.28;;;;;;;17.42;57.68;101157.94;5023920;28;20050;-70
2022/06/16 02:21:23;;;;;;;4.13;3.20;;;;;;;17.47;57.72;101154.00;5025218;28;20049;-69
2022/06/16 02:23:49;;;;;;;5.03;3.30;;;;;;;17.46;57.47;101162.03;5035300;28;20045;-69
2022/06/16 02:26:16;;;;;;;4.80;3.30;;;;;;;17.42;58.00;101161.44;5026781;28;20045;-70
2022/06/16 02:28:45;;;;;;;6.38;4.60;;;;;;;17.41;57.75;101151.78;5023654;28;20049;-69
2022/06/16 02:31:28;;;;;;;4.50;3.70;;;;;;;17.28;58.04;101151.00;5028035;28;20099;-69
2022/06/16 02:34:03;;;;;;;5.20;3.33;;;;;;;17.16;58.20;101143.06;5025252;28;20111;-69
2022/06/16 02:36:43;;;;;;;6.70;3.35;;;;;;;16.93;59.36;101157.97;5025877;28;20151;-70
2022/06/16 02:39:23;;;;;;;4.68;2.95;;;;;;;16.79;59.78;101160.75;5021446;28;20049;-72
2022/06/16 02:42:01;;;;;;;6.25;3.20;;;;;;;16.93;59.55;101147.38;5025456;28;20041;-70
2022/06/16 02:44:36;;;;;;;4.40;3.30;;;;;;;17.01;58.67;101145.03;5024403;28;20041;-70
2022/06/16 02:47:10;;;;;;;7.60;3.40;;;;;;;17.08;58.52;101145.44;5021713;28;20493;-70
2022/06/16 02:49:44;;;;;;;5.93;3.25;;;;;;;16.96;59.06;101157.78;5037565;28;20516;-69
2022/06/16 02:52:18;;;;;;;7.10;3.20;;;;;;;17.12;58.34;101157.50;5025026;28;20127;-69
2022/06/16 02:54:52;;;;;;;3.85;3.13;;;;;;;17.11;58.61;101148.69;5024999;28;20047;-69
2022/06/16 02:57:25;;;;;;;6.20;3.17;;;;;;;17.01;58.84;101155.63;5025003;28;20038;-70
2022/06/16 02:59:58;;;;;;;8.75;3.60;;;;;;;17.09;58.74;101152.44;5021666;28;20045;-70
2022/06/16 03:02:27;;;;;;;5.47;3.33;;;;;;;17.06;59.41;101150.00;5023725;28;20037;-70
2022/06/16 03:04:57;;;;;;;5.72;3.40;;;;;;;16.99;59.76;101145.16;5023917;28;20053;-70
2022/06/16 03:07:25;;;;;;;6.43;3.55;;;;;;;16.92;59.98;101157.13;5025685;28;20409;-70
2022/06/16 03:09:51;;;;;;;7.43;3.53;;;;;;;16.82;60.61;101168.47;5023675;28;20073;-70
2022/06/16 03:12:18;;;;;;;5.82;3.42;;;;;;;16.94;60.74;101171.13;5023951;28;20045;-69
2022/06/16 03:14:45;;;;;;;5.07;3.20;;;;;;;16.99;60.98;101171.66;5024948;28;20057;-70
2022/06/16 03:17:13;;;;;;;8.25;4.00;;;;;;;16.83;62.70;101178.97;5021573;28;20046;-69
2022/06/16 03:19:41;;;;;;;5.93;3.53;;;;;;;16.87;62.63;101191.06;5022098;28;20167;-70
2022/06/16 03:22:08;;;;;;;5.95;3.28;;;;;;;16.74;63.13;101184.09;5023809;28;20614;-70
2022/06/16 03:24:34;;;;;;;5.70;3.60;;;;;;;16.76;63.01;101180.38;5024518;28;20041;-70
2022/06/16 03:27:01;;;;;;;5.28;3.33;;;;;;;16.80;63.28;101165.97;5016944;28;20096;-70
2022/06/16 03:29:28;;;;;;;6.65;3.63;;;;;;;16.89;63.00;101156.50;5021341;28;20544;-70
2022/06/16 03:31:54;;;;;;;6.63;3.42;;;;;;;17.18;61.76;101157.94;5023716;28;20045;-69
2022/06/16 03:34:21;;;;;;;5.43;3.78;;;;;;;17.30;61.24;101156.16;5022733;28;20072;-70
2022/06/16 03:36:49;;;;;;;5.95;4.55;;;;;;;17.29;61.13;101160.66;5024607;28;20077;-69
2022/06/16 03:39:16;;;;;;;5.30;3.70;;;;;;;16.80;62.56;101167.75;5022200;28;20085;-73
2022/06/16 03:41:42;;;;;;;6.57;3.47;;;;;;;16.74;63.57;101190.22;5022819;28;20045;-73
2022/06/16 03:44:09;;;;;;;5.68;3.60;;;;;;;16.73;63.93;101196.47;5023672;28;20034;-72
2022/06/16 03:46:35;;;;;;;6.43;4.13;;;;;;;16.68;65.00;101195.09;5023406;28;20434;-72
2022/06/16 03:49:02;;;;;;;5.43;3.30;;;;;;;17.08;63.46;101187.81;5022148;28;20469;-73
2022/06/16 03:51:29;;;;;;;4.70;3.35;;;;;;;17.14;63.99;101198.00;5027146;28;20045;-72
2022/06/16 03:53:56;;;;;;;8.38;3.72;;;;;;;17.12;63.86;101203.41;5026435;28;20049;-73
2022/06/16 03:56:23;;;;;;;6.50;3.42;;;;;;;17.24;63.40;101199.88;5025592;28;20091;-67
2022/06/16 03:58:52;;;;;;;4.95;3.25;;;;;;;17.02;63.99;101205.88;5028255;28;20556;-68
2022/06/16 04:01:19;;;;;;;4.28;3.15;;;;;;;17.06;64.16;101200.34;5028332;28;20520;-68
2022/06/16 04:04:03;;;;;;;7.72;3.53;;;;;;;17.08;63.28;101196.63;5038860;28;20118;-68
2022/06/16 04:06:31;;;;;;;5.47;3.17;;;;;;;17.17;62.77;101189.81;5035430;28;20092;-67
2022/06/16 04:09:00;;;;;;;6.00;3.67;;;;;;;17.26;62.32;101183.84;5026076;28;20077;-67
2022/06/16 04:11:30;;;;;;;8.93;4.22;;;;;;;17.35;62.46;101183.19;5039080;28;20102;-69
2022/06/16 04:14:00;;;;;;;6.72;4.03;;;;;;;17.40;61.75;101173.97;5027655;28;20053;-70
2022/06/16 04:16:29;;;;;;;6.80;3.28;;;;;;;17.47;61.75;101190.25;5032131;28;20408;-71
2022/06/16 04:18:55;;;;;;;5.35;3.05;;;;;;;17.24;62.70;101199.03;5038373;28;20049;-70
2022/06/16 04:21:21;;;;;;;4.95;3.53;;;;;;;17.02;62.92;101205.00;5031417;28;20095;-70
2022/06/16 04:23:48;;;;;;;4.63;3.15;;;;;;;17.23;62.74;101200.81;5032780;28;20465;-70
2022/06/16 04:26:16;;;;;;;5.93;3.53;;;;;;;17.24;62.25;101209.63;5037644;28;20041;-70
2022/06/16 04:28:42;;;;;;;6.35;3.50;;;;;;;17.36;62.04;101204.31;5031641;28;20103;-70
2022/06/16 04:31:09;;;;;;;6.70;3.53;;;;;;;17.51;61.73;101202.34;5026052;28;20049;-70
2022/06/16 04:33:35;;;;;;;5.60;3.25;;;;;;;17.47;61.91;101204.38;5027066;28;20041;-70
2022/06/16 04:36:02;;;;;;;6.85;3.80;;;;;;;17.63;61.18;101198.78;5036890;28;20610;-70
2022/06/16 04:38:28;;;;;;;4.88;2.97;;;;;;;17.59;61.81;101201.81;5029458;28;20045;-70
2022/06/16 04:40:54;;;;;;;8.02;3.53;;;;;;;17.58;60.98;101203.59;5028126;28;20049;-70
2022/06/16 04:43:22;;;;;;;5.53;3.50;;;;;;;17.34;61.46;101210.66;5033450;28;20456;-70
2022/06/16 04:45:48;;;;;;;7.53;3.58;;;;;;;17.32;61.60;101221.38;5025006;28;20072;-70
2022/06/16 04:48:15;;;;;;;5.65;3.78;;;;;;;17.39;62.08;101229.72;5046341;28;20128;-70
2022/06/16 04:50:41;;;;;;;6.07;3.33;;;;;;;17.41;61.88;101222.50;5045925;28;20040;-71
2022/06/16 04:53:08;;;;;;;10.23;4.10;;;;;;;17.61;61.29;101216.63;5044941;28;20551;-70
2022/06/16 04:55:34;;;;;;;6.97;3.67;;;;;;;17.58;61.39;101216.00;5042073;28;20049;-70
2022/06/16 04:58:01;;;;;;;5.40;3.20;;;;;;;17.74;60.06;101216.56;5042326;28;20049;-70
2022/06/16 05:00:30;;;;;;;6.63;3.50;;;;;;;17.76;60.51;101225.25;5044153;28;20069;-70
2022/06/16 05:02:57;;;;;;;7.45;3.35;;;;;;;17.82;59.74;101225.66;5039519;28;20057;-70
2022/06/16 05:05:24;;;;;;;7.32;3.60;;;;;;;18.17;59.13;101220.38;5030579;28;20041;-70
2022/06/16 05:07:51;;;;;;;6.47;3.45;;;;;;;18.35;58.61;101218.97;5037158;28;20049;-70
2022/06/16 05:10:17;;;;;;;4.95;3.05;;;;;;;18.34;57.97;101201.34;5033659;28;20041;-70
2022/06/16 05:12:44;;;;;;;5.30;3.30;;;;;;;18.41;57.36;101199.91;5029484;28;20049;-70
2022/06/16 05:15:11;;;;;;;5.10;3.05;;;;;;;18.31;57.52;101209.53;5027658;28;20095;-70
2022/06/16 05:17:38;;;;;;;7.18;3.60;;;;;;;18.70;56.34;101218.91;5026673;28;20049;-70
2022/06/16 05:20:05;;;;;;;6.30;3.53;;;;;;;18.72;56.14;101224.97;5019466;28;20050;-70
2022/06/16 05:22:33;;;;;;;7.15;3.58;;;;;;;18.90;55.97;101235.97;5039418;28;20045;-70
2022/06/16 05:24:59;;;;;;;9.77;3.33;;;;;;;18.54;55.98;101247.66;5045872;28;20052;-70
2022/06/16 05:27:26;;;;;;;4.20;3.28;;;;;;;18.61;56.01;101242.72;5011364;28;20089;-70
2022/06/16 05:29:52;;;;;;;8.20;3.97;;;;;;;18.57;55.88;101249.22;5025115;28;20049;-70
2022/06/16 05:32:18;;;;;;;4.95;3.38;;;;;;;18.87;55.80;101262.78;5026101;28;20051;-70
2022/06/16 05:34:46;;;;;;;5.15;2.90;;;;;;;19.38;55.28;101266.63;5026943;28;20045;-70
2022/06/16 05:37:12;;;;;;;6.88;3.60;;;;;;;19.26;54.40;101264.94;5026458;28;20042;-70
2022/06/16 05:39:40;;;;;;;7.95;3.67;;;;;;;19.26;54.73;101261.44;5035233;28;20122;-70
2022/06/16 05:42:08;;;;;;;9.68;3.75;;;;;;;19.29;54.59;101256.72;5031830;28;20049;-70
2022/06/16 05:44:34;;;;;;;10.23;3.42;;;;;;;19.27;54.43;101258.69;5038552;28;20044;-70
2022/06/16 05:47:01;;;;;;;7.40;3.10;;;;;;;19.36;54.26;101252.59;5042588;28;20068;-70
2022/06/16 05:49:27;;;;;;;6.38;3.30;;;;;;;19.50;54.83;101258.69;5027346;28;20045;-70
2022/06/16 05:51:55;;;;;;;6.63;3.10;;;;;;;19.36;53.88;101257.91;5024670;28;20080;-70
2022/06/16 05:54:21;;;;;;;6.43;3.10;;;;;;;19.34;54.95;101269.66;5026573;28;20061;-70
2022/06/16 05:56:48;;;;;;;3.47;3.00;;;;;;;19.65;54.28;101268.94;5029979;28;20131;-70
2022/06/16 05:59:16;;;;;;;5.78;3.20;;;;;;;19.89;53.42;101276.72;5031480;28;20645;-71
2022/06/16 06:01:42;;;;;;;7.05;3.60;;;;;;;19.91;53.64;101264.97;5046765;28;20126;-71
2022/06/16 06:04:09;;;;;;;5.03;3.08;;;;;;;19.74;53.85;101260.19;5043842;28;20562;-71
2022/06/16 06:06:36;;;;;;;8.88;3.38;;;;;;;19.73;52.87;101255.00;5032125;28;20490;-71
2022/06/16 06:17:20;;;;;;;5.72;3.63;;;;;;;19.52;53.08;101281.50;5024714;28;20057;-70
2022/06/16 06:19:47;;;;;;;6.60;3.67;;;;;;;19.42;54.42;101284.06;5023881;28;20460;-70
2022/06/16 06:22:15;;;;;;;10.35;3.30;;;;;;;19.29;54.33;101287.81;5025805;28;20489;-70
2022/06/16 06:24:44;;;;;;;10.70;3.40;;;;;;;19.38;53.53;101297.69;5042621;28;20540;-70
2022/06/16 06:27:15;;;;;;;7.60;3.17;;;;;;;19.48;54.01;101304.00;5028305;28;20529;-70
2022/06/16 06:29:41;;;;;;;6.03;3.45;;;;;;;19.70;53.99;101308.44;5042837;28;20437;-70
2022/06/16 06:32:09;;;;;;;6.13;3.22;;;;;;;19.88;54.28;101304.31;5035932;28;20045;-70
2022/06/16 06:34:36;;;;;;;6.70;3.17;;;;;;;20.00;52.61;101295.31;5044208;28;20063;-70
2022/06/16 06:37:03;;;;;;;8.88;3.58;;;;;;;20.04;52.64;101288.75;5026075;28;20071;-70
2022/06/16 06:39:29;;;;;;;8.23;3.15;;;;;;;20.35;51.40;101293.28;5032141;28;20045;-70
2022/06/16 06:41:57;;;;;;;8.82;3.00;;;;;;;19.73;53.00;101297.56;5033845;28;20568;-70
2022/06/16 06:44:23;;;;;;;6.10;2.88;;;;;;;19.75;53.38;101292.97;5029304;28;20399;-70
2022/06/16 06:46:50;;;;;;;6.28;2.97;;;;;;;20.00;53.83;101295.31;5038384;28;20715;-70
2022/06/16 06:49:16;;;;;;;5.40;2.97;;;;;;;20.14;51.77;101300.31;5041518;28;20045;-71
2022/06/16 06:51:43;;;;;;;4.82;2.83;;;;;;;20.74;51.67;101306.84;5043814;28;20331;-70
2022/06/16 06:54:09;;;;;;;14.38;3.60;;;;;;;21.36;49.52;101309.44;5044986;28;20086;-70
2022/06/16 06:56:36;;;;;;;10.50;3.35;;;;;;;21.33;50.67;101299.88;5041032;28;20095;-70
2022/06/16 06:59:07;;;;;;;7.53;3.20;;;;;;;21.58;49.19;101308.41;5034587;28;20045;-70
2022/06/16 07:01:34;;;;;;;8.02;2.78;;;;;;;21.75;48.12;101315.75;5026025;28;20053;-70
2022/06/16 07:04:02;;;;;;;6.78;3.38;;;;;;;22.14;47.90;101308.66;5038793;28;20044;-70
2022/06/16 07:06:29;;;;;;;5.13;3.50;;;;;;;22.55;46.31;101319.06;5044243;28;20480;-70
2022/06/16 07:08:55;;;;;;;4.32;2.80;;;;;;;22.88;46.17;101316.91;5029608;28;20103;-70
2022/06/16 07:11:22;;;;;;;6.30;3.25;;;;;;;23.04;46.56;101323.38;5024986;28;20046;-70
2022/06/16 07:13:49;;;;;;;8.63;3.15;;;;;;;23.19;46.55;101321.91;5028139;28;20049;-70
2022/06/16 07:16:17;;;;;;;7.40;2.88;;;;;;;23.38;44.93;101321.00;5034959;28;20493;-70
2022/06/16 07:18:45;;;;;;;6.15;3.00;;;;;;;23.37;43.87;101330.00;5029658;28;20038;-70
2022/06/16 07:21:12;;;;;;;4.95;3.00;;;;;;;23.69;43.93;101340.28;5022652;28;20046;-70
2022/06/16 07:23:38;;;;;;;6.90;3.47;;;;;;;23.88;43.85;101333.97;5025884;28;20056;-70
2022/06/16 07:26:05;;;;;;;9.77;3.42;;;;;;;23.77;44.43;101330.53;5024051;28;20075;-70
2022/06/16 07:28:31;;;;;;;6.20;3.10;;;;;;;24.00;42.93;101322.06;5029774;28;20033;-70
2022/06/16 07:30:58;;;;;;;5.28;2.72;;;;;;;23.97;44.26;101315.19;5043001;28;20049;-70
2022/06/16 07:33:25;;;;;;;6.55;3.00;;;;;;;24.31;43.80;101322.56;5032139;28;20049;-70
2022/06/16 07:35:55;;;;;;;5.68;3.03;;;;;;;24.52;42.93;101328.44;5024643;28;20053;-70
2022/06/16 07:38:22;;;;;;;7.00;2.85;;;;;;;24.23;42.41;101332.22;5030108;28;20056;-70
2022/06/16 07:40:48;;;;;;;6.82;3.22;;;;;;;23.99;43.62;101342.66;5026963;28;20135;-70
2022/06/16 07:43:14;;;;;;;7.18;3.08;;;;;;;23.92;44.62;101344.25;5022804;28;20075;-70
2022/06/16 07:45:41;;;;;;;7.43;3.08;;;;;;;24.18;42.42;101358.63;5023109;28;20115;-70
2022/06/16 07:48:08;;;;;;;6.45;3.05;;;;;;;24.24;43.76;101360.69;5024726;28;20103;-70
2022/06/16 07:50:36;;;;;;;10.68;2.80;;;;;;;24.51;44.40;101359.78;5039836;28;20593;-70
2022/06/16 07:53:03;;;;;;;6.20;3.10;;;;;;;24.92;44.31;101363.66;5005530;28;20066;-70
2022/06/16 07:55:29;;;;;;;5.80;2.90;;;;;;;25.79;42.07;101363.50;5034163;28;20046;-70
2022/06/16 07:57:56;;;;;;;7.38;2.80;;;;;;;26.14;41.00;101363.25;5024720;28;20045;-70
2022/06/16 08:00:25;;;;;;;14.23;3.60;;;;;;;25.64;39.09;101373.19;5023946;28;20468;-70
2022/06/16 08:02:51;;;;;;;8.95;3.00;;;;;;;25.31;40.38;101371.31;5024303;28;20498;-70
2022/06/16 08:05:19;;;;;;;17.77;2.97;;;;;;;25.09;40.93;101357.38;5022110;28;20099;-70
2022/06/16 08:07:46;;;;;;;16.02;3.38;;;;;;;24.67;40.50;101353.72;5041301;28;20128;-70
2022/06/16 08:10:16;;;;;;;10.88;2.70;;;;;;;24.43;40.73;101358.84;5033559;28;20045;-70
2022/06/16 08:12:43;;;;;;;10.55;3.08;;;;;;;24.96;42.53;101354.31;5021708;28;20072;-69
2022/06/16 08:15:10;;;;;;;5.20;2.67;;;;;;;25.92;40.54;101353.13;5023677;28;20037;-69
2022/06/16 08:17:39;;;;;;;5.75;2.90;;;;;;;26.74;40.82;101354.09;5023124;28;20412;-70
2022/06/16 08:20:07;;;;;;;3.50;2.45;;;;;;;26.55;36.53;101363.34;5035644;28;20130;-70
2022/06/16 08:22:34;;;;;;;8.02;2.45;;;;;;;27.14;39.67;101375.59;5042333;28;20083;-70
2022/06/16 08:25:01;;;;;;;8.43;2.75;;;;;;;27.60;35.68;101365.06;5043396;28;20071;-70
2022/06/16 08:27:32;;;;;;;4.13;2.38;;;;;;;27.54;36.14;101366.59;5042546;28;20055;-70
2022/06/16 08:29:58;;;;;;;4.43;2.58;;;;;;;27.14;35.67;101369.38;5039718;28;20505;-70
2022/06/16 08:32:26;;;;;;;5.30;2.70;;;;;;;26.98;36.73;101370.22;5044167;28;20041;-69
2022/06/16 08:34:52;;;;;;;6.53;2.60;;;;;;;26.92;36.80;101377.16;5040368;28;20095;-70
2022/06/16 08:37:21;;;;;;;4.82;2.33;;;;;;;26.81;36.82;101374.78;5043008;28;20056;-69
2022/06/16 08:39:48;;;;;;;5.13;2.50;;;;;;;26.87;36.85;101376.81;5032432;28;20472;-69
2022/06/16 08:42:23;;;;;;;5.60;2.75;;;;;;;26.67;37.47;101377.28;5027767;28;20556;-69
2022/06/16 08:44:55;;;;;;;6.40;2.30;;;;;;;26.52;37.38;101382.50;5021980;28;20073;-69
2022/06/16 08:47:31;;;;;;;7.03;2.30;;;;;;;26.58;37.77;101393.44;5026497;28;20050;-69
2022/06/16 08:50:09;;;;;;;4.07;2.30;;;;;;;26.66;37.75;101395.28;5041914;28;20497;-69
2022/06/16 08:52:47;;;;;;;4.70;2.50;;;;;;;26.60;37.06;101390.59;5046488;28;20044;-69
2022/06/16 08:55:21;;;;;;;6.60;2.50;;;;;;;26.33;35.71;101398.94;5045552;28;20049;-69
2022/06/16 08:58:05;;;;;;;6.75;2.65;;;;;;;25.86;36.54;101407.53;5045217;28;20044;-69
2022/06/16 09:00:38;;;;;;;4.07;2.58;;;;;;;25.87;37.77;101403.81;5028057;28;20053;-69
2022/06/16 09:03:09;;;;;;;7.35;2.65;;;;;;;26.31;39.85;101401.78;5044574;28;20041;-69
2022/06/16 09:05:46;;;;;;;7.53;2.70;;;;;;;27.21;37.28;101399.97;5046455;28;20083;-70
2022/06/16 09:08:27;;;;;;;9.95;2.95;;;;;;;28.01;34.93;101394.31;5036873;28;20099;-69
2022/06/16 09:11:04;;;;;;;4.80;2.80;;;;;;;28.45;34.95;101394.63;5044823;28;20095;-70
2022/06/16 09:14:00;;;;;;;6.18;2.90;;;;;;;28.76;35.50;101394.56;5026866;28;20041;-71
2022/06/16 09:16:37;;;;;;;5.70;2.60;;;;;;;28.91;34.37;101398.13;5027579;28;20518;-71
2022/06/16 09:19:16;;;;;;;5.75;2.78;;;;;;;29.28;32.35;101391.06;5026126;28;20971;-72
2022/06/16 09:21:52;;;;;;;5.72;3.10;;;;;;;29.41;33.19;101392.09;5036779;28;20099;-71
2022/06/16 09:24:31;;;;;;;8.23;4.80;;;;;;;29.52;32.26;101400.75;5045222;28;20056;-71
2022/06/16 09:27:02;;;;;;;7.68;5.07;;;;;;;29.31;31.38;101398.78;5047211;28;20044;-71
2022/06/16 09:29:35;;;;;;;11.33;5.03;;;;;;;29.31;31.26;101393.38;5044490;28;20605;-72
2022/06/16 09:32:08;;;;;;;9.90;4.70;;;;;;;29.54;30.83;101398.69;5040504;28;20049;-72
2022/06/16 09:34:40;;;;;;;5.55;3.42;;;;;;;30.03;31.63;101398.97;5025102;28;20124;-71
2022/06/16 09:37:13;;;;;;;5.13;2.97;;;;;;;29.67;33.30;101397.03;5035791;28;20072;-71
2022/06/16 09:39:43;;;;;;;8.20;3.03;;;;;;;29.21;32.58;101399.03;5026809;28;20042;-72
2022/06/16 09:45:01;;;;;;;4.05;2.60;;;;;;;30.03;32.46;101409.78;5032781;28;20054;-71
2022/06/16 09:47:33;;;;;;;6.80;2.47;;;;;;;30.25;31.68;101403.38;5034945;28;20053;-71
2022/06/16 09:50:07;;;;;;;5.18;2.60;;;;;;;30.23;31.13;101406.25;5041874;28;20493;-71
2022/06/16 09:52:37;;;;;;;4.85;2.50;;;;;;;30.31;31.23;101405.31;5033741;28;20433;-69
2022/06/16 09:55:09;;;;;;;5.45;2.47;;;;;;;30.17;31.46;101409.75;5041880;28;20437;-69
2022/06/16 09:57:38;;;;;;;;;;;;;;;29.93;30.85;101399.25;5045793;28;20437;-70
2022/06/16 10:00:11;;;;;;;3.47;2.45;;;;;;;29.93;30.34;101404.69;5044816;28;19978;-70
2022/06/16 10:02:42;;;;;;;6.75;2.70;;;;;;;30.25;31.43;101408.78;5026403;28;20098;-69
2022/06/16 10:05:13;;;;;;;5.22;2.60;;;;;;;30.53;32.09;101409.72;5026447;28;20444;-71
2022/06/16 10:07:49;;;;;;;3.65;2.40;;;;;;;31.07;31.67;101403.78;5025755;28;20041;-70
2022/06/16 10:10:23;;;;;;;5.57;2.67;;;;;;;31.38;30.73;101406.91;5027804;28;20551;-71
2022/06/16 10:12:56;;;;;;;5.10;2.50;;;;;;;31.11;30.34;101408.63;5024192;28;20068;-70
2022/06/16 10:15:30;;;;;;;4.32;2.30;;;;;;;31.18;29.59;101414.09;5026078;28;20103;-71
2022/06/16 10:17:58;;;;;;;5.50;2.40;;;;;;;31.64;30.65;101412.53;5024751;28;20069;-69
2022/06/16 10:20:25;;;;;;;5.85;2.60;;;;;;;31.70;28.85;101417.16;5004643;28;20437;-66
2022/06/16 10:22:56;;;;;;;2.63;2.10;;;;;;;31.80;29.92;101419.50;5004603;28;20108;-65
2022/06/16 10:25:27;;;;;;;4.20;2.40;;;;;;;31.48;27.83;101414.69;5005946;28;20073;-65
2022/06/16 10:27:59;;;;;;;4.15;2.42;;;;;;;31.82;28.27;101415.53;5005631;28;20477;-65
2022/06/16 10:30:34;;;;;;;5.75;2.35;;;;;;;32.13;28.33;101423.19;5002299;28;20041;-65
2022/06/16 10:33:11;;;;;;;5.18;2.10;;;;;;;31.85;31.04;101428.69;5018255;28;20052;-65
2022/06/16 10:35:44;;;;;;;14.80;2.53;;;;;;;31.59;30.38;101425.84;5024187;28;20124;-65
2022/06/16 10:38:12;;;;;;;6.28;2.40;;;;;;;31.21;29.57;101429.94;5025304;28;20095;-65
2022/06/16 10:40:42;;;;;;;6.75;2.50;;;;;;;31.45;28.36;101429.47;5037109;28;20045;-65
2022/06/16 10:43:13;;;;;;;7.07;2.45;;;;;;;31.29;29.82;101425.22;5035769;28;20041;-65
2022/06/16 10:45:41;;;;;;;5.15;2.42;;;;;;;31.55;27.94;101421.88;5024370;28;20060;-65
2022/06/16 10:48:18;;;;;;;5.55;2.30;;;;;;;31.51;28.89;101427.84;5024268;28;20041;-66
2022/06/16 10:50:49;;;;;;;7.47;2.80;;;;;;;31.79;28.56;101440.34;5042448;28;20090;-65
2022/06/16 10:53:22;;;;;;;7.22;2.38;;;;;;;32.17;28.62;101434.50;5043158;28;20044;-65
2022/06/16 10:55:50;;;;;;;7.05;2.45;;;;;;;31.60;26.38;101440.22;5041931;28;20053;-65
2022/06/16 10:58:19;;;;;;;7.47;2.67;;;;;;;31.47;28.23;101429.28;5025448;28;20224;-65
2022/06/16 11:01:02;;;;;;;6.93;2.30;;;;;;;31.06;28.21;101443.59;5023358;28;20096;-65
2022/06/16 11:03:34;;;;;;;5.15;2.47;;;;;;;31.60;30.14;101432.94;5028305;28;20056;-65
2022/06/16 11:06:01;;;;;;;3.75;2.20;;;;;;;31.95;28.54;101436.47;5034956;28;20099;-66
2022/06/16 11:08:37;;;;;;;7.65;2.75;;;;;;;31.58;27.55;101426.88;5023299;28;20092;-65
2022/06/16 11:11:05;;;;;;;7.07;2.47;;;;;;;31.81;26.62;101434.72;5023866;28;20472;-65
2022/06/16 11:13:35;;;;;;;6.13;2.25;;;;;;;31.97;25.87;101428.94;5028662;28;20115;-65
2022/06/16 11:16:08;;;;;;;4.80;2.42;;;;;;;32.36;26.24;101428.28;5027160;28;20053;-65
2022/06/16 11:18:36;;;;;;;6.88;2.40;;;;;;;32.15;28.53;101431.97;5022890;28;20502;-65
2022/06/16 11:21:14;;;;;;;3.88;2.33;;;;;;;32.35;27.63;101432.03;5024135;28;20417;-65
2022/06/16 11:23:43;;;;;;;5.88;2.50;;;;;;;32.41;27.64;101433.09;5006758;28;20046;-65
2022/06/16 11:26:20;;;;;;;5.00;2.00;;;;;;;32.17;27.26;101421.75;5005045;28;20103;-65
2022/06/16 11:28:51;;;;;;;6.75;2.45;;;;;;;32.18;26.47;101431.59;5008187;28;20053;-65
2022/06/16 11:31:22;;;;;;;6.32;2.47;;;;;;;32.12;27.86;101437.81;5009344;28;20136;-65
2022/06/16 11:34:08;;;;;;;6.18;2.55;;;;;;;31.60;26.38;101429.38;5021658;28;20049;-65
2022/06/16 11:37:00;;;;;;;4.30;2.33;;;;;;;31.39;28.33;101435.69;5022143;28;20042;-65
2022/06/16 11:39:38;;;;;;;4.25;2.10;;;;;;;31.68;27.45;101434.66;5022392;28;20041;-65
2022/06/16 11:42:13;;;;;;;5.72;2.60;;;;;;;31.93;26.63;101435.00;5023980;28;20543;-65
2022/06/16 11:44:51;;;;;;;6.47;2.40;;;;;;;32.08;29.49;101446.53;5024980;28;20461;-65
2022/06/16 11:47:33;;;;;;;4.90;2.28;;;;;;;32.13;28.28;101441.34;5023600;28;20100;-65
2022/06/16 11:50:07;;;;;;;6.10;2.22;;;;;;;32.30;28.18;101445.38;5027013;28;20049;-65
2022/06/16 11:52:43;;;;;;;4.60;2.30;;;;;;;30.90;26.33;101431.13;5042712;28;20041;-65
2022/06/16 11:55:22;;;;;;;4.30;2.10;;;;;;;31.22;27.31;101437.03;5044402;28;20065;-66